Time;durP1;ratioP1;P1;durP2;ratioP2;P2;SDS_P1;SDS_P2;PMS_P1;PMS_P2;Temp;Humidity;BMP_temperature;BMP_pressure;BME280_temperature;BME280_humidity;BME280_pressure;Samples;Min_cycle;Max_cycle;Signal;HPM_P1;HPM_P2
2023/07/13 00:02:28;;;;;;;3.20;1.63;;;;;;;;;;13042715;22;20414;-83
2023/07/13 00:07:31;;;;;;;3.57;1.20;;;;;;;;;;13063819;22;20487;-83
2023/07/13 00:12:37;;;;;;;3.80;1.38;;;;;;;;;;13042355;22;20403;-83
2023/07/13 00:17:41;;;;;;;2.80;1.13;;;;;;;;;;13042026;22;20913;-83
2023/07/13 00:22:43;;;;;;;6.70;1.70;;;;;;;;;;13042075;22;20771;-83
2023/07/13 00:27:48;;;;;;;3.20;1.13;;;;;;;;;;13042657;22;20360;-84
2023/07/13 00:32:51;;;;;;;2.35;1.23;;;;;;;;;;13041239;22;20910;-83
2023/07/13 00:37:54;;;;;;;2.22;0.90;;;;;;;;;;13042392;22;20391;-83
2023/07/13 00:42:59;;;;;;;3.45;1.77;;;;;;;;;;13041820;22;20395;-82
2023/07/13 00:48:03;;;;;;;4.25;2.30;;;;;;;;;;13042225;22;20402;-85
2023/07/13 00:53:05;;;;;;;5.78;1.80;;;;;;;;;;13045254;22;20377;-85
2023/07/13 00:58:08;;;;;;;3.13;1.30;;;;;;;;;;13046207;22;20365;-84
2023/07/13 01:03:12;;;;;;;3.20;1.33;;;;;;;;;;13046708;22;20824;-84
2023/07/13 01:08:14;;;;;;;2.00;1.10;;;;;;;;;;13067320;22;20673;-83
2023/07/13 01:13:17;;;;;;;1.97;1.07;;;;;;;;;;13045798;22;20407;-84
2023/07/13 01:18:24;;;;;;;3.23;1.13;;;;;;;;;;13045104;22;20365;-83
2023/07/13 01:23:29;;;;;;;2.43;0.93;;;;;;;;;;13046119;22;20362;-84
2023/07/13 01:28:36;;;;;;;2.47;1.48;;;;;;;;;;13046903;22;20361;-84
2023/07/13 01:33:40;;;;;;;1.63;0.90;;;;;;;;;;13045879;22;20381;-83
2023/07/13 01:38:44;;;;;;;2.15;1.20;;;;;;;;;;13045559;22;20369;-83
2023/07/13 01:43:46;;;;;;;3.40;1.35;;;;;;;;;;13045889;22;20415;-84
2023/07/13 01:48:49;;;;;;;2.22;1.20;;;;;;;;;;13045346;22;20901;-83
2023/07/13 01:53:52;;;;;;;3.97;1.55;;;;;;;;;;13045125;22;20454;-83
2023/07/13 01:58:55;;;;;;;3.08;1.00;;;;;;;;;;13045662;22;20369;-83
2023/07/13 02:03:57;;;;;;;2.30;1.13;;;;;;;;;;13045184;22;20442;-83
2023/07/13 02:09:01;;;;;;;4.07;1.60;;;;;;;;;;13043511;22;20357;-83
2023/07/13 02:14:03;;;;;;;1.67;1.00;;;;;;;;;;13043882;22;20385;-83
2023/07/13 02:19:06;;;;;;;5.70;1.60;;;;;;;;;;13042610;22;20365;-84
2023/07/13 02:24:09;;;;;;;3.30;1.60;;;;;;;;;;13041695;22;20357;-83
2023/07/13 02:29:12;;;;;;;4.37;2.30;;;;;;;;;;13044270;22;20364;-83
2023/07/13 02:34:14;;;;;;;3.22;1.55;;;;;;;;;;13043470;22;20883;-83
2023/07/13 02:39:18;;;;;;;3.13;1.67;;;;;;;;;;13043911;22;20357;-83
2023/07/13 02:44:20;;;;;;;4.93;1.57;;;;;;;;;;13043653;22;20732;-83
2023/07/13 02:49:23;;;;;;;3.75;2.22;;;;;;;;;;13043853;22;20926;-83
2023/07/13 02:54:26;;;;;;;4.75;1.80;;;;;;;;;;13043097;22;20449;-83
2023/07/13 02:59:29;;;;;;;3.97;1.98;;;;;;;;;;13043920;22;20407;-83
2023/07/13 03:04:31;;;;;;;4.17;1.90;;;;;;;;;;13044154;22;20418;-83
2023/07/13 03:09:36;;;;;;;3.25;1.50;;;;;;;;;;13042671;22;20352;-83
2023/07/13 03:14:38;;;;;;;4.57;2.00;;;;;;;;;;13043361;22;20848;-83
2023/07/13 03:19:40;;;;;;;3.38;1.80;;;;;;;;;;13043792;22;20356;-83
2023/07/13 03:24:44;;;;;;;5.13;1.98;;;;;;;;;;13042788;22;20456;-83
2023/07/13 03:29:46;;;;;;;3.17;1.63;;;;;;;;;;13043239;22;20419;-83
2023/07/13 03:34:49;;;;;;;3.63;1.97;;;;;;;;;;13043283;22;20466;-83
2023/07/13 03:39:53;;;;;;;4.10;1.77;;;;;;;;;;13042875;22;20902;-83
2023/07/13 03:44:55;;;;;;;3.97;1.88;;;;;;;;;;13042865;22;20353;-83
2023/07/13 03:49:57;;;;;;;4.00;1.63;;;;;;;;;;13064906;22;20414;-83
2023/07/13 03:55:01;;;;;;;2.20;1.75;;;;;;;;;;13042032;22;20385;-83
2023/07/13 04:00:05;;;;;;;5.35;1.70;;;;;;;;;;13043214;22;20369;-83
2023/07/13 04:05:08;;;;;;;2.65;1.42;;;;;;;;;;13064452;22;20391;-83
2023/07/13 04:10:12;;;;;;;2.65;1.50;;;;;;;;;;13041637;22;20357;-83
2023/07/13 04:15:15;;;;;;;3.05;1.38;;;;;;;;;;13043028;22;20381;-83
2023/07/13 04:20:19;;;;;;;1.90;1.15;;;;;;;;;;13041394;22;20369;-83
2023/07/13 04:25:23;;;;;;;4.97;1.70;;;;;;;;;;13043235;22;20357;-83
2023/07/13 04:30:26;;;;;;;2.17;1.20;;;;;;;;;;13046626;22;20365;-83
2023/07/13 04:35:28;;;;;;;4.18;1.42;;;;;;;;;;13047156;22;20411;-84
2023/07/13 04:40:32;;;;;;;3.38;1.50;;;;;;;;;;13045214;22;20353;-83
2023/07/13 04:45:36;;;;;;;3.42;1.42;;;;;;;;;;13046414;22;20732;-83
2023/07/13 04:50:38;;;;;;;4.60;1.60;;;;;;;;;;13046309;22;20357;-82
2023/07/13 04:55:42;;;;;;;2.70;1.60;;;;;;;;;;13045321;22;20377;-83
2023/07/13 05:00:44;;;;;;;2.30;1.50;;;;;;;;;;13045289;22;20365;-83
2023/07/13 05:05:56;;;;;;;3.80;1.60;;;;;;;;;;13044858;22;20364;-82
2023/07/13 05:11:02;;;;;;;3.35;1.80;;;;;;;;;;13045716;22;20391;-83
2023/07/13 05:16:07;;;;;;;4.35;1.60;;;;;;;;;;13043289;22;20377;-82
2023/07/13 05:21:11;;;;;;;4.88;1.90;;;;;;;;;;13044344;22;20361;-83
2023/07/13 05:26:15;;;;;;;3.03;1.80;;;;;;;;;;13044780;22;20361;-83
2023/07/13 05:31:17;;;;;;;2.95;1.75;;;;;;;;;;13043280;22;20369;-83
2023/07/13 05:36:20;;;;;;;2.50;1.40;;;;;;;;;;13065500;22;20461;-83
2023/07/13 05:41:23;;;;;;;4.63;1.52;;;;;;;;;;13043148;22;20365;-83
2023/07/13 05:46:26;;;;;;;4.40;1.50;;;;;;;;;;13045215;22;20446;-83
2023/07/13 05:51:28;;;;;;;2.88;1.60;;;;;;;;;;13044341;22;20906;-83
2023/07/13 05:56:32;;;;;;;3.72;1.65;;;;;;;;;;13043985;22;20493;-83
2023/07/13 06:01:34;;;;;;;2.60;1.38;;;;;;;;;;13037180;22;20419;-83
2023/07/13 06:06:36;;;;;;;3.93;1.67;;;;;;;;;;13042195;22;20361;-83
2023/07/13 06:11:40;;;;;;;3.35;1.30;;;;;;;;;;13040265;22;20361;-84
2023/07/13 06:16:43;;;;;;;3.70;1.02;;;;;;;;;;13028484;22;20411;-84
2023/07/13 06:21:45;;;;;;;3.22;1.40;;;;;;;;;;13064303;22;20357;-84
2023/07/13 06:26:49;;;;;;;2.43;1.43;;;;;;;;;;13042186;22;20457;-85
2023/07/13 06:31:51;;;;;;;4.05;1.33;;;;;;;;;;13042456;22;20418;-84
2023/07/13 06:36:53;;;;;;;3.58;1.23;;;;;;;;;;13063710;22;20480;-84
2023/07/13 06:41:57;;;;;;;3.15;1.58;;;;;;;;;;13041260;22;20361;-79
2023/07/13 06:46:59;;;;;;;5.23;1.70;;;;;;;;;;13039163;22;20468;-80
2023/07/13 06:52:01;;;;;;;5.23;2.10;;;;;;;;;;13040746;22;20373;-80
2023/07/13 06:57:06;;;;;;;3.28;1.60;;;;;;;;;;13041434;22;20414;-80
2023/07/13 07:02:11;;;;;;;2.40;1.27;;;;;;;;;;13042046;22;20353;-80
2023/07/13 07:07:13;;;;;;;3.37;1.90;;;;;;;;;;13041344;22;20486;-80
2023/07/13 07:12:17;;;;;;;2.23;1.40;;;;;;;;;;13040501;22;20736;-80
2023/07/13 07:17:19;;;;;;;3.45;1.42;;;;;;;;;;13039973;22;20389;-80
2023/07/13 07:22:22;;;;;;;1.77;1.13;;;;;;;;;;13040399;22;20662;-79
2023/07/13 07:27:25;;;;;;;1.70;1.27;;;;;;;;;;13039929;22;20440;-79
2023/07/13 07:32:30;;;;;;;1.85;1.33;;;;;;;;;;13039442;22;20357;-80
2023/07/13 07:37:32;;;;;;;2.83;1.23;;;;;;;;;;13040601;22;20380;-80
2023/07/13 07:42:36;;;;;;;3.63;1.30;;;;;;;;;;13040116;22;20357;-80
2023/07/13 07:47:38;;;;;;;2.95;1.50;;;;;;;;;;13041157;22;20357;-80
2023/07/13 07:52:41;;;;;;;3.97;1.80;;;;;;;;;;13037923;22;20395;-80
2023/07/13 07:57:44;;;;;;;4.43;1.55;;;;;;;;;;13038881;22;20380;-79
2023/07/13 08:02:47;;;;;;;2.13;1.10;;;;;;;;;;13037514;22;20365;-84
2023/07/13 08:07:50;;;;;;;2.15;1.40;;;;;;;;;;13039582;22;20365;-84
2023/07/13 08:12:53;;;;;;;3.70;1.40;;;;;;;;;;13038242;22;20418;-84
2023/07/13 08:17:56;;;;;;;3.05;1.70;;;;;;;;;;13036534;22;20376;-83
2023/07/13 08:22:58;;;;;;;2.55;1.70;;;;;;;;;;13038521;22;20434;-84
2023/07/13 08:28:04;;;;;;;3.33;1.60;;;;;;;;;;13037904;22;20395;-83
2023/07/13 08:33:06;;;;;;;2.90;1.63;;;;;;;;;;13034970;22;20449;-84
2023/07/13 08:38:09;;;;;;;3.30;1.80;;;;;;;;;;13052441;22;20377;-82
2023/07/13 08:43:17;;;;;;;4.90;1.70;;;;;;;;;;13034588;22;20419;-83
2023/07/13 08:48:25;;;;;;;2.67;1.60;;;;;;;;;;13037093;22;20365;-83
2023/07/13 08:53:36;;;;;;;4.03;1.90;;;;;;;;;;13035762;22;20407;-83
2023/07/13 08:58:42;;;;;;;3.45;2.00;;;;;;;;;;13035814;22;20377;-81
2023/07/13 09:03:51;;;;;;;3.75;1.80;;;;;;;;;;13035208;22;20384;-83
2023/07/13 09:09:02;;;;;;;6.75;2.33;;;;;;;;;;13033561;22;20979;-84
2023/07/13 09:14:30;;;;;;;4.25;1.90;;;;;;;;;;13038268;22;20418;-84
2023/07/13 09:19:35;;;;;;;3.22;2.17;;;;;;;;;;13041036;22;20426;-84
2023/07/13 09:24:39;;;;;;;4.47;2.28;;;;;;;;;;13037091;22;20399;-84
2023/07/13 09:29:50;;;;;;;6.32;2.63;;;;;;;;;;13034131;22;20369;-83
2023/07/13 09:34:54;;;;;;;4.35;2.03;;;;;;;;;;13039775;22;20430;-84
2023/07/13 09:39:59;;;;;;;4.13;2.20;;;;;;;;;;13044224;22;20446;-84
2023/07/13 09:45:03;;;;;;;4.38;1.95;;;;;;;;;;13042499;22;21323;-81
2023/07/13 09:50:09;;;;;;;5.30;2.67;;;;;;;;;;13039704;22;20658;-83
2023/07/13 09:55:26;;;;;;;5.95;2.35;;;;;;;;;;13039678;22;20381;-84
2023/07/13 10:00:31;;;;;;;2.55;1.88;;;;;;;;;;13041776;22;20436;-84
2023/07/13 10:05:42;;;;;;;2.80;1.67;;;;;;;;;;13035516;22;20361;-85
2023/07/13 10:10:44;;;;;;;3.80;1.90;;;;;;;;;;13033908;22;20365;-85
2023/07/13 10:15:49;;;;;;;4.35;2.05;;;;;;;;;;13052971;22;20380;-85
2023/07/13 10:21:00;;;;;;;3.67;1.80;;;;;;;;;;13031260;22;20365;-84
2023/07/13 10:26:03;;;;;;;3.28;1.70;;;;;;;;;;13033072;22;20430;-86
2023/07/13 10:31:13;;;;;;;4.28;2.20;;;;;;;;;;13033868;22;20365;-84
2023/07/13 10:36:29;;;;;;;4.10;2.25;;;;;;;;;;13035403;22;20377;-86
2023/07/13 10:41:36;;;;;;;4.38;2.90;;;;;;;;;;13036195;22;20427;-87
2023/07/13 10:46:39;;;;;;;3.40;2.10;;;;;;;;;;13038351;22;20431;-86
2023/07/13 10:51:42;;;;;;;4.10;2.00;;;;;;;;;;13057038;22;20426;-85
2023/07/13 10:56:44;;;;;;;2.75;1.73;;;;;;;;;;13036404;22;20991;-86
2023/07/13 11:01:55;;;;;;;1.17;1.07;;;;;;;;;;13030911;22;20369;-86
2023/07/13 11:07:00;;;;;;;2.03;1.20;;;;;;;;;;13030906;22;20423;-86
2023/07/13 11:12:07;;;;;;;3.25;2.00;;;;;;;;;;13030593;22;20442;-84
2023/07/13 11:17:36;;;;;;;1.85;0.90;;;;;;;;;;13031016;22;20447;-84
2023/07/13 11:22:47;;;;;;;1.88;1.10;;;;;;;;;;13053055;22;20740;-86
2023/07/13 11:27:53;;;;;;;2.15;1.27;;;;;;;;;;13033392;22;21121;-86
2023/07/13 11:33:14;;;;;;;4.00;1.23;;;;;;;;;;13035167;22;20361;-87
2023/07/13 11:38:19;;;;;;;1.67;1.08;;;;;;;;;;13034370;22;20385;-86
2023/07/13 11:43:23;;;;;;;2.47;1.27;;;;;;;;;;13033940;22;20384;-85
2023/07/13 11:48:31;;;;;;;3.83;1.30;;;;;;;;;;13035313;22;20426;-86
2023/07/13 11:53:39;;;;;;;2.73;1.30;;;;;;;;;;13037632;22;20377;-86
2023/07/13 11:58:42;;;;;;;2.53;1.55;;;;;;;;;;13036022;22;20388;-87
2023/07/13 12:03:47;;;;;;;3.30;1.70;;;;;;;;;;13037440;22;20361;-87
2023/07/13 12:08:49;;;;;;;4.03;1.50;;;;;;;;;;13038152;22;20482;-85
2023/07/13 12:13:51;;;;;;;4.13;1.70;;;;;;;;;;13037329;22;20545;-85
2023/07/13 12:18:56;;;;;;;4.85;2.03;;;;;;;;;;13038716;22;20382;-85
2023/07/13 12:24:01;;;;;;;2.97;1.63;;;;;;;;;;13041228;22;20829;-85
2023/07/13 12:29:07;;;;;;;6.07;2.30;;;;;;;;;;13044102;22;20419;-88
2023/07/13 12:34:13;;;;;;;6.00;2.77;;;;;;;;;;13058441;22;20442;-87
2023/07/13 12:39:18;;;;;;;4.65;2.03;;;;;;;;;;13038793;22;20446;-88
2023/07/13 12:44:27;;;;;;;4.27;2.23;;;;;;;;;;13036527;22;20422;-88
2023/07/13 12:49:35;;;;;;;3.83;2.00;;;;;;;;;;13040880;22;20430;-86
2023/07/13 12:54:40;;;;;;;4.93;2.25;;;;;;;;;;13043535;22;20403;-87
2023/07/13 12:59:43;;;;;;;6.63;2.70;;;;;;;;;;13044326;22;20454;-84
2023/07/13 13:04:49;;;;;;;5.20;2.50;;;;;;;;;;13042339;22;20474;-88
2023/07/13 13:09:52;;;;;;;4.40;2.45;;;;;;;;;;13061911;22;20792;-87
2023/07/13 13:14:55;;;;;;;2.83;2.30;;;;;;;;;;13062111;22;21007;-87
2023/07/13 13:19:59;;;;;;;4.47;2.50;;;;;;;;;;13042305;22;20460;-87
2023/07/13 13:25:01;;;;;;;5.30;2.70;;;;;;;;;;13043353;22;20357;-87
2023/07/13 13:30:05;;;;;;;5.38;3.08;;;;;;;;;;13044162;22;20418;-86
2023/07/13 13:35:13;;;;;;;8.60;3.57;;;;;;;;;;13045546;22;20422;-85
2023/07/13 13:40:18;;;;;;;8.33;5.63;;;;;;;;;;13044681;22;20481;-87
2023/07/13 13:45:21;;;;;;;6.10;3.13;;;;;;;;;;13043211;22;20419;-87
2023/07/13 13:50:25;;;;;;;4.63;3.00;;;;;;;;;;13046969;22;20418;-87
2023/07/13 13:55:28;;;;;;;8.00;3.60;;;;;;;;;;13043699;22;20368;-88
2023/07/13 14:00:30;;;;;;;6.85;3.13;;;;;;;;;;13064693;22;21044;-89
2023/07/13 14:05:36;;;;;;;5.68;3.05;;;;;;;;;;13043247;22;20365;-88
2023/07/13 14:10:38;;;;;;;5.28;2.83;;;;;;;;;;13039033;22;20386;-88
2023/07/13 14:15:40;;;;;;;6.35;2.90;;;;;;;;;;13064101;22;20365;-88
2023/07/13 14:20:44;;;;;;;4.97;3.00;;;;;;;;;;13039562;22;20380;-89
2023/07/13 14:25:47;;;;;;;7.30;3.30;;;;;;;;;;13040579;22;20845;-88
2023/07/13 14:30:50;;;;;;;6.53;2.85;;;;;;;;;;13062856;22;20369;-87
2023/07/13 14:35:54;;;;;;;6.17;3.10;;;;;;;;;;13039542;22;20585;-86
2023/07/13 14:40:56;;;;;;;6.20;3.23;;;;;;;;;;13031764;22;20841;-87
2023/07/13 14:45:59;;;;;;;6.70;3.60;;;;;;;;;;13049542;22;20406;-83
2023/07/13 14:51:03;;;;;;;5.07;3.20;;;;;;;;;;13032088;22;20396;-85
2023/07/13 14:56:11;;;;;;;5.80;3.05;;;;;;;;;;13034653;22;20365;-87
2023/07/13 15:01:16;;;;;;;8.47;3.27;;;;;;;;;;13035021;22;20373;-87
2023/07/13 15:06:20;;;;;;;4.85;2.42;;;;;;;;;;13033484;22;20380;-87
2023/07/13 15:11:23;;;;;;;5.10;2.40;;;;;;;;;;13033959;22;20385;-88
2023/07/13 15:16:26;;;;;;;4.00;2.35;;;;;;;;;;13033331;22;20443;-88
2023/07/13 15:21:34;;;;;;;4.00;2.60;;;;;;;;;;13035451;22;20426;-88
2023/07/13 15:26:36;;;;;;;4.40;2.40;;;;;;;;;;13044554;22;20442;-87
2023/07/13 15:31:40;;;;;;;4.53;2.30;;;;;;;;;;13043737;22;20438;-87
2023/07/13 15:36:43;;;;;;;5.70;2.58;;;;;;;;;;13030028;22;20431;-86
2023/07/13 15:41:47;;;;;;;4.63;2.30;;;;;;;;;;13030186;22;20691;-87
2023/07/13 15:46:50;;;;;;;4.40;2.33;;;;;;;;;;13032292;22;20372;-87
2023/07/13 15:51:53;;;;;;;6.30;2.40;;;;;;;;;;13056427;22;20422;-86
2023/07/13 15:57:01;;;;;;;5.93;3.08;;;;;;;;;;13036321;22;20408;-87
2023/07/13 16:02:13;;;;;;;6.13;2.80;;;;;;;;;;13034994;22;20683;-86
2023/07/13 16:07:19;;;;;;;4.30;2.87;;;;;;;;;;13038138;22;20431;-86
2023/07/13 16:12:22;;;;;;;4.28;2.70;;;;;;;;;;13032300;22;20768;-86
2023/07/13 16:17:24;;;;;;;6.67;2.20;;;;;;;;;;13031798;22;20380;-85
2023/07/13 16:22:28;;;;;;;4.40;2.67;;;;;;;;;;13037830;22;20698;-86
2023/07/13 16:27:30;;;;;;;5.15;2.00;;;;;;;;;;13033260;22;20376;-87
2023/07/13 16:32:32;;;;;;;2.60;1.60;;;;;;;;;;13040922;22;20377;-84
2023/07/13 16:37:36;;;;;;;4.50;1.90;;;;;;;;;;13035200;22;20385;-87
2023/07/13 16:42:38;;;;;;;3.15;1.77;;;;;;;;;;13039089;22;20376;-86
2023/07/13 16:47:41;;;;;;;4.00;1.80;;;;;;;;;;13039473;22;20372;-85
2023/07/13 16:52:45;;;;;;;4.32;1.70;;;;;;;;;;13039685;22;20365;-86
2023/07/13 16:57:48;;;;;;;4.70;1.90;;;;;;;;;;13034940;22;20376;-87
2023/07/13 17:02:52;;;;;;;2.63;1.58;;;;;;;;;;13037949;22;20369;-86
2023/07/13 17:07:57;;;;;;;1.53;1.43;;;;;;;;;;13035532;22;20434;-86
2023/07/13 17:12:59;;;;;;;4.07;1.98;;;;;;;;;;13037176;22;20373;-87
2023/07/13 17:18:04;;;;;;;3.90;1.60;;;;;;;;;;13039043;22;21080;-88
2023/07/13 17:23:15;;;;;;;3.57;1.40;;;;;;;;;;13037969;22;20381;-88
2023/07/13 17:28:20;;;;;;;3.60;1.90;;;;;;;;;;13038846;22;20549;-89
2023/07/13 17:33:35;;;;;;;2.55;1.60;;;;;;;;;;13039881;22;20446;-88
2023/07/13 17:38:42;;;;;;;3.43;1.70;;;;;;;;;;13004613;22;20434;-86
2023/07/13 17:43:46;;;;;;;3.22;1.70;;;;;;;;;;13032616;22;20379;-84
2023/07/13 17:48:51;;;;;;;3.33;1.77;;;;;;;;;;13032078;22;20431;-86
2023/07/13 17:53:55;;;;;;;4.22;2.03;;;;;;;;;;13033513;22;20894;-86
2023/07/13 17:58:58;;;;;;;2.45;1.50;;;;;;;;;;13032085;22;20411;-86
2023/07/13 18:04:04;;;;;;;3.72;1.60;;;;;;;;;;13031079;22;20431;-88
2023/07/13 18:09:15;;;;;;;5.18;1.90;;;;;;;;;;13027908;22;20407;-85
2023/07/13 18:14:18;;;;;;;3.28;1.70;;;;;;;;;;13029985;22;20442;-85
2023/07/13 18:19:31;;;;;;;3.22;1.60;;;;;;;;;;13028607;22;20392;-85
2023/07/13 18:24:35;;;;;;;3.50;1.70;;;;;;;;;;13028020;22;20402;-85
2023/07/13 18:29:38;;;;;;;6.75;1.90;;;;;;;;;;13039621;22;20865;-85
2023/07/13 18:34:42;;;;;;;4.10;2.00;;;;;;;;;;13029323;22;20603;-85
2023/07/13 18:39:47;;;;;;;4.30;1.80;;;;;;;;;;13030209;22;20385;-85
2023/07/13 18:44:50;;;;;;;3.70;1.90;;;;;;;;;;13033755;22;20845;-86
2023/07/13 18:49:55;;;;;;;3.88;1.65;;;;;;;;;;13032634;22;20383;-85
2023/07/13 18:54:58;;;;;;;4.80;1.95;;;;;;;;;;13035047;22;20419;-84
2023/07/13 19:00:03;;;;;;;2.90;1.75;;;;;;;;;;13037621;22;20445;-84
2023/07/13 19:05:14;;;;;;;3.63;2.10;;;;;;;;;;13037862;22;20825;-84
2023/07/13 19:10:21;;;;;;;3.27;1.97;;;;;;;;;;13036585;22;20368;-84
2023/07/13 19:15:26;;;;;;;6.00;2.08;;;;;;;;;;13059939;22;20496;-85
2023/07/13 19:20:30;;;;;;;2.92;1.70;;;;;;;;;;13039568;22;20377;-85
2023/07/13 19:25:34;;;;;;;2.77;2.03;;;;;;;;;;13041705;22;20390;-85
2023/07/13 19:30:36;;;;;;;3.63;1.93;;;;;;;;;;13063515;22;20368;-86
2023/07/13 19:35:38;;;;;;;3.23;2.17;;;;;;;;;;13041521;22;20399;-86
2023/07/13 19:40:43;;;;;;;3.10;2.30;;;;;;;;;;13040287;22;20380;-85
2023/07/13 19:45:45;;;;;;;4.57;2.33;;;;;;;;;;13069720;22;20368;-85
2023/07/13 19:50:48;;;;;;;3.83;2.70;;;;;;;;;;13068981;22;20454;-84
2023/07/13 19:55:52;;;;;;;6.33;3.47;;;;;;;;;;13039247;22;20430;-85
2023/07/13 20:00:55;;;;;;;5.07;2.90;;;;;;;;;;13040808;22;20377;-85
2023/07/13 20:05:59;;;;;;;5.65;3.38;;;;;;;;;;13038606;22;20357;-85
2023/07/13 20:11:03;;;;;;;7.40;3.78;;;;;;;;;;13039287;22;20744;-85
2023/07/13 20:16:07;;;;;;;5.63;3.20;;;;;;;;;;13040209;22;20369;-85
2023/07/13 20:21:11;;;;;;;4.90;3.20;;;;;;;;;;13037329;22;20958;-85
2023/07/13 20:26:15;;;;;;;4.53;3.50;;;;;;;;;;13037730;22;20425;-85
2023/07/13 20:31:18;;;;;;;4.55;2.65;;;;;;;;;;13040179;22;20406;-86
2023/07/13 20:36:20;;;;;;;6.53;2.92;;;;;;;;;;13061601;22;20368;-86
2023/07/13 20:41:24;;;;;;;3.53;2.23;;;;;;;;;;13039753;22;20376;-85
2023/07/13 20:46:26;;;;;;;6.53;2.95;;;;;;;;;;13040070;22;20361;-85
2023/07/13 20:51:29;;;;;;;4.17;2.77;;;;;;;;;;13039543;22;20663;-84
2023/07/13 20:56:34;;;;;;;4.90;2.63;;;;;;;;;;13040257;22;20411;-85
2023/07/13 21:01:37;;;;;;;4.07;2.58;;;;;;;;;;13039753;22;20419;-84
2023/07/13 21:06:42;;;;;;;3.83;2.47;;;;;;;;;;13041728;22;20449;-85
2023/07/13 21:11:46;;;;;;;4.47;2.60;;;;;;;;;;13045042;22;20357;-85
2023/07/13 21:16:48;;;;;;;4.57;1.97;;;;;;;;;;13046226;22;20732;-85
2023/07/13 21:21:50;;;;;;;4.50;2.10;;;;;;;;;;13066935;22;20377;-85
2023/07/13 21:26:56;;;;;;;6.07;2.17;;;;;;;;;;13037091;22;20369;-85
2023/07/13 21:31:58;;;;;;;4.63;2.00;;;;;;;;;;13035495;22;20427;-84
2023/07/13 21:37:00;;;;;;;5.22;2.20;;;;;;;;;;13055535;22;20364;-85
2023/07/13 21:42:04;;;;;;;4.50;2.30;;;;;;;;;;13056055;22;20430;-84
2023/07/13 21:47:09;;;;;;;3.25;2.00;;;;;;;;;;13036327;22;20364;-84
2023/07/13 21:52:16;;;;;;;4.45;2.42;;;;;;;;;;13036152;22;20369;-84
2023/07/13 21:57:20;;;;;;;4.70;2.05;;;;;;;;;;13035721;22;20377;-84
2023/07/13 22:02:22;;;;;;;4.25;2.40;;;;;;;;;;13033869;22;20399;-85
2023/07/13 22:07:25;;;;;;;3.28;2.05;;;;;;;;;;13034605;22;20447;-84
2023/07/13 22:12:28;;;;;;;4.00;2.20;;;;;;;;;;13034619;22;20422;-85
2023/07/13 22:17:30;;;;;;;3.90;2.00;;;;;;;;;;13034545;22;20403;-84
2023/07/13 22:22:33;;;;;;;5.00;2.20;;;;;;;;;;13034931;22;20385;-85
2023/07/13 22:27:37;;;;;;;5.30;2.20;;;;;;;;;;13037807;22;20361;-84
2023/07/13 22:32:39;;;;;;;4.55;2.40;;;;;;;;;;13039301;22;20365;-84
2023/07/13 22:37:42;;;;;;;4.63;2.30;;;;;;;;;;13061194;22;20368;-85
2023/07/13 22:42:46;;;;;;;2.87;2.60;;;;;;;;;;13061222;22;20430;-85
2023/07/13 22:47:50;;;;;;;4.67;2.17;;;;;;;;;;13044116;22;20372;-85
2023/07/13 22:52:52;;;;;;;4.70;2.22;;;;;;;;;;13043443;22;20698;-84
2023/07/13 22:57:56;;;;;;;5.75;2.53;;;;;;;;;;13043440;22;20365;-85
2023/07/13 23:02:59;;;;;;;3.58;2.60;;;;;;;;;;13015833;22;20910;-85
2023/07/13 23:08:01;;;;;;;6.57;2.40;;;;;;;;;;13042922;22;20369;-85
2023/07/13 23:13:06;;;;;;;3.17;2.20;;;;;;;;;;13064626;22;20690;-85
2023/07/13 23:18:11;;;;;;;3.92;2.47;;;;;;;;;;13043437;22;20426;-85
2023/07/13 23:23:15;;;;;;;3.47;2.50;;;;;;;;;;13016054;22;20407;-85
2023/07/13 23:28:19;;;;;;;3.55;2.20;;;;;;;;;;13043240;22;21072;-85
2023/07/13 23:33:23;;;;;;;5.67;2.63;;;;;;;;;;13042968;22;20416;-84
2023/07/13 23:38:26;;;;;;;4.33;2.60;;;;;;;;;;13043303;22;20365;-82
2023/07/13 23:43:30;;;;;;;4.43;2.45;;;;;;;;;;13041664;22;20831;-84
2023/07/13 23:48:32;;;;;;;3.05;2.38;;;;;;;;;;13041710;22;20414;-83
2023/07/13 23:53:35;;;;;;;4.00;2.28;;;;;;;;;;13064195;22;20377;-85
2023/07/13 23:58:38;;;;;;;3.23;2.20;;;;;;;;;;13041815;22;20824;-83
